sensor_id;sensor_type;location;lat;lon;timestamp;pressure;altitude;pressure_sealevel;temperature;humidity
15229;BME280;7717;47.792;12.076;2023-02-04T00:01:17;97005.00;;;5.76;100.00
15229;BME280;7717;47.792;12.076;2023-02-04T00:03:42;96983.63;;;5.68;100.00
15229;BME280;7717;47.792;12.076;2023-02-04T00:06:07;96996.78;;;5.54;100.00
15229;BME280;7717;47.792;12.076;2023-02-04T00:08:33;96992.69;;;5.58;100.00
15229;BME280;7717;47.792;12.076;2023-02-04T00:10:58;96985.69;;;5.51;100.00
15229;BME280;7717;47.792;12.076;2023-02-04T00:13:23;96980.78;;;5.57;100.00
15229;BME280;7717;47.792;12.076;2023-02-04T00:15:49;96990.94;;;5.57;100.00
15229;BME280;7717;47.792;12.076;2023-02-04T00:18:14;96967.53;;;5.37;100.00
15229;BME280;7717;47.792;12.076;2023-02-04T00:20:39;96978.13;;;5.52;100.00
15229;BME280;7717;47.792;12.076;2023-02-04T00:23:05;96985.34;;;5.38;100.00
15229;BME280;7717;47.792;12.076;2023-02-04T00:25:30;97004.09;;;5.44;100.00
15229;BME280;7717;47.792;12.076;2023-02-04T00:27:55;96970.22;;;9.70;100.00
15229;BME280;7717;47.792;12.076;2023-02-04T00:30:21;96993.88;;;6.35;100.00
15229;BME280;7717;47.792;12.076;2023-02-04T00:32:46;97010.78;;;6.34;100.00
15229;BME280;7717;47.792;12.076;2023-02-04T00:35:12;97011.78;;;6.39;100.00
15229;BME280;7717;47.792;12.076;2023-02-04T00:37:37;97015.06;;;6.35;100.00
15229;BME280;7717;47.792;12.076;2023-02-04T00:40:03;97033.78;;;6.39;100.00
15229;BME280;7717;47.792;12.076;2023-02-04T00:42:28;97034.94;;;6.52;100.00
15229;BME280;7717;47.792;12.076;2023-02-04T00:44:54;97031.56;;;6.18;100.00
15229;BME280;7717;47.792;12.076;2023-02-04T00:47:19;97043.75;;;6.31;100.00
15229;BME280;7717;47.792;12.076;2023-02-04T00:49:44;97028.66;;;6.37;100.00
15229;BME280;7717;47.792;12.076;2023-02-04T00:52:10;97046.03;;;6.20;100.00
15229;BME280;7717;47.792;12.076;2023-02-04T00:54:35;97042.50;;;6.15;100.00
15229;BME280;7717;47.792;12.076;2023-02-04T00:57:00;97056.69;;;6.07;100.00
15229;BME280;7717;47.792;12.076;2023-02-04T00:59:26;97049.66;;;6.28;100.00
15229;BME280;7717;47.792;12.076;2023-02-04T01:01:51;97036.53;;;6.13;100.00
15229;BME280;7717;47.792;12.076;2023-02-04T01:04:17;97042.88;;;6.29;100.00
15229;BME280;7717;47.792;12.076;2023-02-04T01:06:42;97058.31;;;6.03;100.00
15229;BME280;7717;47.792;12.076;2023-02-04T01:09:08;97056.81;;;6.11;100.00
15229;BME280;7717;47.792;12.076;2023-02-04T01:11:34;97072.13;;;6.13;100.00
15229;BME280;7717;47.792;12.076;2023-02-04T01:14:00;97074.53;;;6.08;100.00
15229;BME280;7717;47.792;12.076;2023-02-04T01:16:26;97087.81;;;6.00;100.00
15229;BME280;7717;47.792;12.076;2023-02-04T01:18:51;97097.19;;;6.01;100.00
15229;BME280;7717;47.792;12.076;2023-02-04T01:21:20;97081.84;;;5.98;100.00
15229;BME280;7717;47.792;12.076;2023-02-04T01:23:45;97082.66;;;5.97;100.00
15229;BME280;7717;47.792;12.076;2023-02-04T01:26:10;97081.94;;;6.01;100.00
15229;BME280;7717;47.792;12.076;2023-02-04T01:28:36;97093.78;;;6.00;100.00
15229;BME280;7717;47.792;12.076;2023-02-04T01:31:01;97087.63;;;5.93;100.00
15229;BME280;7717;47.792;12.076;2023-02-04T01:33:26;97092.75;;;5.95;100.00
15229;BME280;7717;47.792;12.076;2023-02-04T01:35:52;97095.25;;;5.63;100.00
15229;BME280;7717;47.792;12.076;2023-02-04T01:38:17;97106.75;;;5.81;100.00
15229;BME280;7717;47.792;12.076;2023-02-04T01:40:42;97115.31;;;5.55;100.00
15229;BME280;7717;47.792;12.076;2023-02-04T01:43:08;97118.84;;;5.61;100.00
15229;BME280;7717;47.792;12.076;2023-02-04T01:45:34;97113.88;;;5.64;100.00
15229;BME280;7717;47.792;12.076;2023-02-04T01:48:02;97115.41;;;5.31;100.00
15229;BME280;7717;47.792;12.076;2023-02-04T01:50:28;97100.97;;;5.29;100.00
15229;BME280;7717;47.792;12.076;2023-02-04T01:52:54;97124.81;;;5.34;100.00
15229;BME280;7717;47.792;12.076;2023-02-04T01:55:24;97125.63;;;5.33;100.00
15229;BME280;7717;47.792;12.076;2023-02-04T01:57:50;97140.19;;;5.38;100.00
15229;BME280;7717;47.792;12.076;2023-02-04T02:00:29;97152.31;;;5.20;100.00
15229;BME280;7717;47.792;12.076;2023-02-04T02:02:54;97147.44;;;5.26;100.00
15229;BME280;7717;47.792;12.076;2023-02-04T02:05:23;97157.22;;;5.15;100.00
15229;BME280;7717;47.792;12.076;2023-02-04T02:07:52;97166.53;;;5.15;100.00
15229;BME280;7717;47.792;12.076;2023-02-04T02:10:19;97177.97;;;5.02;100.00
15229;BME280;7717;47.792;12.076;2023-02-04T02:12:45;97184.78;;;5.04;100.00
15229;BME280;7717;47.792;12.076;2023-02-04T02:15:12;97172.22;;;5.08;100.00
15229;BME280;7717;47.792;12.076;2023-02-04T02:17:38;97187.72;;;5.17;100.00
15229;BME280;7717;47.792;12.076;2023-02-04T02:20:05;97176.72;;;4.91;100.00
15229;BME280;7717;47.792;12.076;2023-02-04T02:22:36;97182.09;;;5.00;100.00
15229;BME280;7717;47.792;12.076;2023-02-04T02:25:12;97164.94;;;5.18;100.00
15229;BME280;7717;47.792;12.076;2023-02-04T02:27:38;97167.72;;;4.99;100.00
15229;BME280;7717;47.792;12.076;2023-02-04T02:30:04;97184.13;;;5.10;100.00
15229;BME280;7717;47.792;12.076;2023-02-04T02:32:30;97169.41;;;5.26;100.00
15229;BME280;7717;47.792;12.076;2023-02-04T02:34:56;97173.50;;;5.20;100.00
15229;BME280;7717;47.792;12.076;2023-02-04T02:37:21;97187.31;;;5.04;100.00
15229;BME280;7717;47.792;12.076;2023-02-04T02:39:46;97191.53;;;5.30;100.00
15229;BME280;7717;47.792;12.076;2023-02-04T02:42:14;97183.22;;;5.34;100.00
15229;BME280;7717;47.792;12.076;2023-02-04T02:44:42;97190.97;;;5.11;100.00
15229;BME280;7717;47.792;12.076;2023-02-04T02:47:12;97187.63;;;5.14;100.00
15229;BME280;7717;47.792;12.076;2023-02-04T02:49:40;97192.09;;;5.21;100.00
15229;BME280;7717;47.792;12.076;2023-02-04T02:52:11;97188.34;;;5.35;100.00
15229;BME280;7717;47.792;12.076;2023-02-04T02:54:36;97185.94;;;5.40;100.00
15229;BME280;7717;47.792;12.076;2023-02-04T02:57:02;97177.47;;;5.39;100.00
15229;BME280;7717;47.792;12.076;2023-02-04T02:59:27;97174.63;;;5.57;100.00
15229;BME280;7717;47.792;12.076;2023-02-04T03:02:00;97182.19;;;5.56;100.00
15229;BME280;7717;47.792;12.076;2023-02-04T03:04:28;97185.44;;;5.50;100.00
15229;BME280;7717;47.792;12.076;2023-02-04T03:06:55;97178.94;;;5.60;100.00
15229;BME280;7717;47.792;12.076;2023-02-04T03:09:21;97185.47;;;5.52;100.00
15229;BME280;7717;47.792;12.076;2023-02-04T03:11:48;97190.75;;;5.58;100.00
15229;BME280;7717;47.792;12.076;2023-02-04T03:14:14;97199.59;;;5.44;100.00
15229;BME280;7717;47.792;12.076;2023-02-04T03:16:39;97197.63;;;5.35;100.00
15229;BME280;7717;47.792;12.076;2023-02-04T03:19:05;97196.91;;;5.39;100.00
15229;BME280;7717;47.792;12.076;2023-02-04T03:21:31;97212.25;;;5.16;100.00
15229;BME280;7717;47.792;12.076;2023-02-04T03:23:57;97219.69;;;5.37;100.00
15229;BME280;7717;47.792;12.076;2023-02-04T03:26:26;97210.28;;;5.33;100.00
15229;BME280;7717;47.792;12.076;2023-02-04T03:28:54;97221.88;;;5.25;100.00
15229;BME280;7717;47.792;12.076;2023-02-04T03:31:19;97220.28;;;5.29;100.00
15229;BME280;7717;47.792;12.076;2023-02-04T03:33:45;97228.84;;;5.32;100.00
15229;BME280;7717;47.792;12.076;2023-02-04T03:36:10;97233.78;;;5.28;100.00
15229;BME280;7717;47.792;12.076;2023-02-04T03:38:36;97238.69;;;5.23;100.00
15229;BME280;7717;47.792;12.076;2023-02-04T03:41:01;97243.88;;;5.26;100.00
15229;BME280;7717;47.792;12.076;2023-02-04T03:43:27;97244.69;;;4.99;100.00
15229;BME280;7717;47.792;12.076;2023-02-04T03:45:52;97247.31;;;5.02;100.00
15229;BME280;7717;47.792;12.076;2023-02-04T03:48:18;97254.88;;;5.25;100.00
15229;BME280;7717;47.792;12.076;2023-02-04T03:50:43;97256.41;;;5.21;100.00
15229;BME280;7717;47.792;12.076;2023-02-04T03:53:09;97265.06;;;5.27;100.00
15229;BME280;7717;47.792;12.076;2023-02-04T03:55:35;97270.09;;;5.25;100.00
15229;BME280;7717;47.792;12.076;2023-02-04T03:58:02;97275.59;;;5.39;100.00
15229;BME280;7717;47.792;12.076;2023-02-04T04:00:27;97269.53;;;5.34;100.00
15229;BME280;7717;47.792;12.076;2023-02-04T04:02:53;97278.03;;;5.36;100.00
15229;BME280;7717;47.792;12.076;2023-02-04T04:05:18;97285.69;;;5.12;100.00
15229;BME280;7717;47.792;12.076;2023-02-04T04:07:44;97292.34;;;5.08;100.00
15229;BME280;7717;47.792;12.076;2023-02-04T04:10:10;97300.44;;;4.74;100.00
15229;BME280;7717;47.792;12.076;2023-02-04T04:12:35;97302.97;;;4.98;100.00
15229;BME280;7717;47.792;12.076;2023-02-04T04:15:01;97315.38;;;4.90;100.00
15229;BME280;7717;47.792;12.076;2023-02-04T04:17:26;97309.47;;;4.90;100.00
15229;BME280;7717;47.792;12.076;2023-02-04T04:19:52;97320.63;;;4.95;100.00
15229;BME280;7717;47.792;12.076;2023-02-04T04:22:17;97320.25;;;4.84;100.00
15229;BME280;7717;47.792;12.076;2023-02-04T04:24:42;97317.94;;;4.90;100.00
15229;BME280;7717;47.792;12.076;2023-02-04T04:27:08;97328.88;;;4.89;100.00
15229;BME280;7717;47.792;12.076;2023-02-04T04:29:33;97329.09;;;4.95;100.00
15229;BME280;7717;47.792;12.076;2023-02-04T04:31:58;97328.19;;;4.93;100.00
15229;BME280;7717;47.792;12.076;2023-02-04T04:34:24;97333.59;;;5.02;100.00
15229;BME280;7717;47.792;12.076;2023-02-04T04:36:49;97332.06;;;4.83;100.00
15229;BME280;7717;47.792;12.076;2023-02-04T04:39:17;97336.13;;;5.02;100.00
15229;BME280;7717;47.792;12.076;2023-02-04T04:41:42;97341.88;;;4.98;100.00
15229;BME280;7717;47.792;12.076;2023-02-04T04:44:08;97346.34;;;5.04;100.00
15229;BME280;7717;47.792;12.076;2023-02-04T04:46:33;97353.19;;;5.07;100.00
15229;BME280;7717;47.792;12.076;2023-02-04T04:48:58;97365.16;;;5.11;100.00
15229;BME280;7717;47.792;12.076;2023-02-04T04:51:24;97358.00;;;5.23;100.00
15229;BME280;7717;47.792;12.076;2023-02-04T04:53:49;97364.41;;;5.37;100.00
15229;BME280;7717;47.792;12.076;2023-02-04T04:56:15;97367.13;;;5.18;100.00
15229;BME280;7717;47.792;12.076;2023-02-04T04:58:41;97384.50;;;5.31;100.00
15229;BME280;7717;47.792;12.076;2023-02-04T05:01:06;97379.97;;;5.47;100.00
15229;BME280;7717;47.792;12.076;2023-02-04T05:03:31;97379.75;;;5.40;100.00
15229;BME280;7717;47.792;12.076;2023-02-04T05:05:57;97379.84;;;5.44;100.00
15229;BME280;7717;47.792;12.076;2023-02-04T05:08:22;97387.94;;;5.82;100.00
15229;BME280;7717;47.792;12.076;2023-02-04T05:10:48;97391.59;;;5.64;100.00
15229;BME280;7717;47.792;12.076;2023-02-04T05:13:13;97401.97;;;5.46;100.00
15229;BME280;7717;47.792;12.076;2023-02-04T05:15:38;97403.81;;;5.76;100.00
15229;BME280;7717;47.792;12.076;2023-02-04T05:18:04;97413.13;;;5.75;100.00
15229;BME280;7717;47.792;12.076;2023-02-04T05:20:29;97414.66;;;5.46;100.00
15229;BME280;7717;47.792;12.076;2023-02-04T05:22:54;97409.38;;;5.64;100.00
15229;BME280;7717;47.792;12.076;2023-02-04T05:25:21;97424.56;;;5.63;100.00
15229;BME280;7717;47.792;12.076;2023-02-04T05:27:47;97424.50;;;5.61;100.00
15229;BME280;7717;47.792;12.076;2023-02-04T05:30:13;97436.38;;;5.62;100.00
15229;BME280;7717;47.792;12.076;2023-02-04T05:32:39;97432.69;;;5.54;100.00
15229;BME280;7717;47.792;12.076;2023-02-04T05:35:04;97436.38;;;5.62;100.00
15229;BME280;7717;47.792;12.076;2023-02-04T05:37:30;97430.53;;;5.40;100.00
15229;BME280;7717;47.792;12.076;2023-02-04T05:39:56;97451.34;;;5.30;100.00
15229;BME280;7717;47.792;12.076;2023-02-04T05:42:21;97440.22;;;5.51;100.00
15229;BME280;7717;47.792;12.076;2023-02-04T05:44:47;97447.94;;;5.54;100.00
15229;BME280;7717;47.792;12.076;2023-02-04T05:47:12;97454.09;;;5.61;100.00
15229;BME280;7717;47.792;12.076;2023-02-04T05:49:38;97462.09;;;5.47;100.00
15229;BME280;7717;47.792;12.076;2023-02-04T05:52:03;97471.66;;;5.54;100.00
15229;BME280;7717;47.792;12.076;2023-02-04T05:54:28;97467.28;;;5.50;100.00
15229;BME280;7717;47.792;12.076;2023-02-04T05:56:54;97476.44;;;5.47;100.00
15229;BME280;7717;47.792;12.076;2023-02-04T05:59:22;97484.91;;;5.46;100.00
15229;BME280;7717;47.792;12.076;2023-02-04T06:01:47;97487.50;;;5.47;100.00
15229;BME280;7717;47.792;12.076;2023-02-04T06:04:13;97497.94;;;5.55;100.00
15229;BME280;7717;47.792;12.076;2023-02-04T06:06:41;97490.19;;;5.52;100.00
15229;BME280;7717;47.792;12.076;2023-02-04T06:09:06;97503.88;;;5.33;100.00
15229;BME280;7717;47.792;12.076;2023-02-04T06:11:32;97507.16;;;5.53;100.00
15229;BME280;7717;47.792;12.076;2023-02-04T06:13:57;97498.28;;;5.41;100.00
15229;BME280;7717;47.792;12.076;2023-02-04T06:16:23;97496.72;;;5.45;100.00
15229;BME280;7717;47.792;12.076;2023-02-04T06:18:48;97504.78;;;5.57;100.00
15229;BME280;7717;47.792;12.076;2023-02-04T06:21:13;97497.28;;;5.61;100.00
15229;BME280;7717;47.792;12.076;2023-02-04T06:23:39;97503.13;;;5.58;100.00
15229;BME280;7717;47.792;12.076;2023-02-04T06:26:04;97506.19;;;5.73;100.00
15229;BME280;7717;47.792;12.076;2023-02-04T06:28:29;97508.22;;;5.35;100.00
15229;BME280;7717;47.792;12.076;2023-02-04T06:30:55;97512.31;;;5.32;100.00
15229;BME280;7717;47.792;12.076;2023-02-04T06:33:20;97518.66;;;5.20;100.00
15229;BME280;7717;47.792;12.076;2023-02-04T06:35:48;97518.66;;;5.43;100.00
15229;BME280;7717;47.792;12.076;2023-02-04T06:38:13;97518.94;;;5.28;100.00
15229;BME280;7717;47.792;12.076;2023-02-04T06:40:38;97518.59;;;5.41;100.00
15229;BME280;7717;47.792;12.076;2023-02-04T06:43:04;97524.72;;;5.24;100.00
15229;BME280;7717;47.792;12.076;2023-02-04T06:45:29;97532.81;;;5.61;100.00
15229;BME280;7717;47.792;12.076;2023-02-04T06:47:55;97532.31;;;5.47;100.00
15229;BME280;7717;47.792;12.076;2023-02-04T06:50:20;97527.28;;;5.71;100.00
15229;BME280;7717;47.792;12.076;2023-02-04T06:52:46;97523.66;;;5.41;100.00
15229;BME280;7717;47.792;12.076;2023-02-04T06:55:15;97533.59;;;5.13;100.00
15229;BME280;7717;47.792;12.076;2023-02-04T06:57:41;97533.56;;;4.90;100.00
15229;BME280;7717;47.792;12.076;2023-02-04T07:00:08;97532.34;;;4.59;100.00
15229;BME280;7717;47.792;12.076;2023-02-04T07:02:35;97534.88;;;4.59;100.00
15229;BME280;7717;47.792;12.076;2023-02-04T07:05:02;97544.75;;;4.53;100.00
15229;BME280;7717;47.792;12.076;2023-02-04T07:07:28;97538.09;;;4.55;100.00
15229;BME280;7717;47.792;12.076;2023-02-04T07:09:53;97535.44;;;4.52;100.00
15229;BME280;7717;47.792;12.076;2023-02-04T07:12:19;97536.06;;;4.67;100.00
15229;BME280;7717;47.792;12.076;2023-02-04T07:14:44;97545.03;;;5.03;100.00
15229;BME280;7717;47.792;12.076;2023-02-04T07:17:09;97555.38;;;5.08;100.00
15229;BME280;7717;47.792;12.076;2023-02-04T07:19:35;97544.56;;;5.12;100.00
15229;BME280;7717;47.792;12.076;2023-02-04T07:22:01;97560.50;;;5.09;100.00
15229;BME280;7717;47.792;12.076;2023-02-04T07:24:27;97561.66;;;5.16;100.00
15229;BME280;7717;47.792;12.076;2023-02-04T07:26:52;97563.81;;;5.07;100.00
15229;BME280;7717;47.792;12.076;2023-02-04T07:29:18;97562.06;;;5.27;100.00
15229;BME280;7717;47.792;12.076;2023-02-04T07:31:44;97562.81;;;5.03;100.00
15229;BME280;7717;47.792;12.076;2023-02-04T07:34:12;97562.06;;;5.27;100.00
15229;BME280;7717;47.792;12.076;2023-02-04T07:36:37;97564.19;;;5.61;100.00
15229;BME280;7717;47.792;12.076;2023-02-04T07:39:03;97565.72;;;5.57;100.00
15229;BME280;7717;47.792;12.076;2023-02-04T07:41:28;97564.75;;;5.54;100.00
15229;BME280;7717;47.792;12.076;2023-02-04T07:43:53;97566.41;;;5.76;100.00
15229;BME280;7717;47.792;12.076;2023-02-04T07:46:19;97571.19;;;5.91;100.00
15229;BME280;7717;47.792;12.076;2023-02-04T07:48:44;97571.06;;;6.10;100.00
15229;BME280;7717;47.792;12.076;2023-02-04T07:51:09;97575.72;;;5.98;100.00
15229;BME280;7717;47.792;12.076;2023-02-04T07:53:35;97583.44;;;6.01;100.00
15229;BME280;7717;47.792;12.076;2023-02-04T07:56:00;97569.53;;;6.16;100.00
15229;BME280;7717;47.792;12.076;2023-02-04T07:58:26;97581.03;;;6.28;100.00
15229;BME280;7717;47.792;12.076;2023-02-04T08:00:52;97572.50;;;6.52;100.00
15229;BME280;7717;47.792;12.076;2023-02-04T08:03:17;97583.53;;;6.53;100.00
15229;BME280;7717;47.792;12.076;2023-02-04T08:05:42;97582.25;;;6.16;100.00
15229;BME280;7717;47.792;12.076;2023-02-04T08:08:08;97575.63;;;6.45;100.00
15229;BME280;7717;47.792;12.076;2023-02-04T08:10:33;97574.31;;;6.56;100.00
15229;BME280;7717;47.792;12.076;2023-02-04T08:12:58;97584.38;;;6.53;100.00
15229;BME280;7717;47.792;12.076;2023-02-04T08:15:24;97589.81;;;6.38;100.00
15229;BME280;7717;47.792;12.076;2023-02-04T08:17:49;97579.97;;;6.47;100.00
15229;BME280;7717;47.792;12.076;2023-02-04T08:20:15;97586.69;;;6.45;100.00
15229;BME280;7717;47.792;12.076;2023-02-04T08:22:42;97587.88;;;6.55;100.00
15229;BME280;7717;47.792;12.076;2023-02-04T08:25:08;97585.28;;;6.54;100.00
15229;BME280;7717;47.792;12.076;2023-02-04T08:27:35;97593.00;;;6.82;100.00
15229;BME280;7717;47.792;12.076;2023-02-04T08:30:01;97596.34;;;6.56;100.00
15229;BME280;7717;47.792;12.076;2023-02-04T08:32:30;97606.69;;;6.60;100.00
15229;BME280;7717;47.792;12.076;2023-02-04T08:34:56;97593.34;;;6.93;100.00
15229;BME280;7717;47.792;12.076;2023-02-04T08:37:22;97597.38;;;6.87;100.00
15229;BME280;7717;47.792;12.076;2023-02-04T08:39:48;97591.91;;;7.01;100.00
15229;BME280;7717;47.792;12.076;2023-02-04T08:42:14;97596.34;;;7.07;100.00
15229;BME280;7717;47.792;12.076;2023-02-04T08:44:40;97597.19;;;7.08;100.00
15229;BME280;7717;47.792;12.076;2023-02-04T08:47:06;97584.66;;;7.14;100.00
15229;BME280;7717;47.792;12.076;2023-02-04T08:49:31;97594.09;;;7.16;100.00
15229;BME280;7717;47.792;12.076;2023-02-04T08:51:57;97602.47;;;6.87;100.00
15229;BME280;7717;47.792;12.076;2023-02-04T08:54:22;97597.16;;;7.33;100.00
15229;BME280;7717;47.792;12.076;2023-02-04T08:56:48;97598.78;;;7.31;100.00
15229;BME280;7717;47.792;12.076;2023-02-04T08:59:14;97607.91;;;7.52;100.00
15229;BME280;7717;47.792;12.076;2023-02-04T09:01:40;97606.47;;;7.06;100.00
15229;BME280;7717;47.792;12.076;2023-02-04T09:04:09;97607.03;;;6.97;100.00
15229;BME280;7717;47.792;12.076;2023-02-04T09:06:35;97604.56;;;7.26;100.00
15229;BME280;7717;47.792;12.076;2023-02-04T09:09:01;97614.19;;;6.81;100.00
15229;BME280;7717;47.792;12.076;2023-02-04T09:11:36;97617.78;;;6.88;100.00
15229;BME280;7717;47.792;12.076;2023-02-04T09:14:02;97612.00;;;6.94;100.00
15229;BME280;7717;47.792;12.076;2023-02-04T09:16:31;97616.91;;;7.13;100.00
15229;BME280;7717;47.792;12.076;2023-02-04T09:18:57;97616.69;;;6.80;100.00
15229;BME280;7717;47.792;12.076;2023-02-04T09:21:28;97627.69;;;7.06;100.00
15229;BME280;7717;47.792;12.076;2023-02-04T09:23:53;97618.50;;;7.37;100.00
15229;BME280;7717;47.792;12.076;2023-02-04T09:26:19;97624.03;;;7.24;100.00
15229;BME280;7717;47.792;12.076;2023-02-04T09:28:44;97628.97;;;7.46;100.00
15229;BME280;7717;47.792;12.076;2023-02-04T09:31:11;97637.38;;;7.16;100.00
15229;BME280;7717;47.792;12.076;2023-02-04T09:33:36;97639.38;;;7.25;100.00
15229;BME280;7717;47.792;12.076;2023-02-04T09:36:02;97644.72;;;7.07;100.00
15229;BME280;7717;47.792;12.076;2023-02-04T09:38:28;97657.28;;;7.28;100.00
15229;BME280;7717;47.792;12.076;2023-02-04T09:40:56;97667.84;;;6.89;100.00
15229;BME280;7717;47.792;12.076;2023-02-04T09:43:23;97674.19;;;7.00;100.00
15229;BME280;7717;47.792;12.076;2023-02-04T09:45:50;97668.63;;;7.12;100.00
15229;BME280;7717;47.792;12.076;2023-02-04T09:48:16;97671.59;;;6.99;100.00
15229;BME280;7717;47.792;12.076;2023-02-04T09:50:42;97662.19;;;7.49;100.00
15229;BME280;7717;47.792;12.076;2023-02-04T09:53:13;97674.75;;;6.92;100.00
15229;BME280;7717;47.792;12.076;2023-02-04T09:55:42;97672.41;;;6.98;100.00
15229;BME280;7717;47.792;12.076;2023-02-04T09:58:19;97688.41;;;7.19;100.00
15229;BME280;7717;47.792;12.076;2023-02-04T10:00:46;97677.41;;;7.20;100.00
15229;BME280;7717;47.792;12.076;2023-02-04T10:03:16;97685.00;;;7.19;100.00
15229;BME280;7717;47.792;12.076;2023-02-04T10:05:44;97677.50;;;7.24;100.00
15229;BME280;7717;47.792;12.076;2023-02-04T10:08:15;97664.97;;;7.57;100.00
15229;BME280;7717;47.792;12.076;2023-02-04T10:10:42;97677.97;;;7.39;100.00
15229;BME280;7717;47.792;12.076;2023-02-04T10:13:15;97679.63;;;7.37;100.00
15229;BME280;7717;47.792;12.076;2023-02-04T10:15:41;97675.31;;;7.62;100.00
15229;BME280;7717;47.792;12.076;2023-02-04T10:18:07;97672.94;;;7.68;100.00
15229;BME280;7717;47.792;12.076;2023-02-04T10:20:33;97670.44;;;7.42;100.00
15229;BME280;7717;47.792;12.076;2023-02-04T10:22:58;97674.41;;;7.88;100.00
15229;BME280;7717;47.792;12.076;2023-02-04T10:25:25;97664.94;;;8.13;100.00
15229;BME280;7717;47.792;12.076;2023-02-04T10:27:55;97655.78;;;8.49;100.00
15229;BME280;7717;47.792;12.076;2023-02-04T10:30:27;97654.91;;;8.19;100.00
15229;BME280;7717;47.792;12.076;2023-02-04T10:32:54;97651.16;;;8.06;100.00
15229;BME280;7717;47.792;12.076;2023-02-04T10:35:23;97661.47;;;8.72;100.00
15229;BME280;7717;47.792;12.076;2023-02-04T10:38:02;97665.28;;;7.97;100.00
15229;BME280;7717;47.792;12.076;2023-02-04T10:40:33;97669.41;;;7.91;100.00
15229;BME280;7717;47.792;12.076;2023-02-04T10:43:07;97675.97;;;7.29;100.00
15229;BME280;7717;47.792;12.076;2023-02-04T10:45:35;97680.78;;;7.47;100.00
15229;BME280;7717;47.792;12.076;2023-02-04T10:48:15;97685.88;;;7.47;100.00
15229;BME280;7717;47.792;12.076;2023-02-04T10:50:45;97702.59;;;7.38;100.00
15229;BME280;7717;47.792;12.076;2023-02-04T10:53:15;97708.13;;;6.75;100.00
15229;BME280;7717;47.792;12.076;2023-02-04T10:55:59;97725.88;;;6.04;100.00
15229;BME280;7717;47.792;12.076;2023-02-04T10:58:30;97733.41;;;6.24;100.00
15229;BME280;7717;47.792;12.076;2023-02-04T11:00:57;97732.47;;;5.99;100.00
15229;BME280;7717;47.792;12.076;2023-02-04T11:03:27;97728.66;;;5.67;100.00
15229;BME280;7717;47.792;12.076;2023-02-04T11:05:58;97728.41;;;5.39;100.00
15229;BME280;7717;47.792;12.076;2023-02-04T11:08:33;97743.16;;;5.08;100.00
15229;BME280;7717;47.792;12.076;2023-02-04T11:18:54;97743.81;;;5.02;100.00
15229;BME280;7717;47.792;12.076;2023-02-04T11:24:20;97747.66;;;5.13;100.00
15229;BME280;7717;47.792;12.076;2023-02-04T11:27:16;97728.41;;;5.18;100.00
15229;BME280;7717;47.792;12.076;2023-02-04T11:29:43;97731.09;;;5.43;100.00
15229;BME280;7717;47.792;12.076;2023-02-04T11:32:32;97731.28;;;5.47;100.00
15229;BME280;7717;47.792;12.076;2023-02-04T11:37:42;97741.47;;;4.87;100.00
15229;BME280;7717;47.792;12.076;2023-02-04T11:40:27;97750.00;;;4.50;100.00
15229;BME280;7717;47.792;12.076;2023-02-04T11:43:10;97745.47;;;4.62;100.00
15229;BME280;7717;47.792;12.076;2023-02-04T11:45:41;97745.13;;;4.94;100.00
15229;BME280;7717;47.792;12.076;2023-02-04T11:48:17;97752.13;;;4.99;100.00
15229;BME280;7717;47.792;12.076;2023-02-04T11:50:57;97748.28;;;4.88;100.00
15229;BME280;7717;47.792;12.076;2023-02-04T11:53:30;97749.78;;;4.83;100.00
15229;BME280;7717;47.792;12.076;2023-02-04T11:55:57;97756.06;;;5.12;100.00
15229;BME280;7717;47.792;12.076;2023-02-04T11:58:28;97743.75;;;5.21;100.00
15229;BME280;7717;47.792;12.076;2023-02-04T12:00:55;97751.28;;;4.99;100.00
15229;BME280;7717;47.792;12.076;2023-02-04T12:03:26;97751.75;;;5.10;100.00
15229;BME280;7717;47.792;12.076;2023-02-04T12:05:55;97725.75;;;5.36;100.00
15229;BME280;7717;47.792;12.076;2023-02-04T12:08:31;97745.44;;;5.42;100.00
15229;BME280;7717;47.792;12.076;2023-02-04T12:13:28;97748.81;;;5.00;100.00
15229;BME280;7717;47.792;12.076;2023-02-04T12:16:13;97748.25;;;5.08;100.00
15229;BME280;7717;47.792;12.076;2023-02-04T12:18:41;97754.28;;;4.90;100.00
15229;BME280;7717;47.792;12.076;2023-02-04T12:21:06;97757.19;;;4.78;100.00
15229;BME280;7717;47.792;12.076;2023-02-04T12:23:32;97749.50;;;4.77;100.00
15229;BME280;7717;47.792;12.076;2023-02-04T12:25:58;97739.84;;;4.89;100.00
15229;BME280;7717;47.792;12.076;2023-02-04T12:28:23;97753.06;;;5.01;100.00
15229;BME280;7717;47.792;12.076;2023-02-04T12:30:49;97752.00;;;4.96;100.00
15229;BME280;7717;47.792;12.076;2023-02-04T12:33:14;97744.63;;;4.62;100.00
15229;BME280;7717;47.792;12.076;2023-02-04T12:35:40;97748.22;;;4.86;100.00
15229;BME280;7717;47.792;12.076;2023-02-04T12:38:06;97733.97;;;5.10;100.00
15229;BME280;7717;47.792;12.076;2023-02-04T12:40:31;97744.84;;;5.07;100.00
15229;BME280;7717;47.792;12.076;2023-02-04T12:42:57;97740.56;;;5.06;100.00
15229;BME280;7717;47.792;12.076;2023-02-04T12:45:23;97740.53;;;4.85;100.00
15229;BME280;7717;47.792;12.076;2023-02-04T12:47:48;97733.59;;;5.00;100.00
15229;BME280;7717;47.792;12.076;2023-02-04T12:50:16;97742.50;;;5.12;100.00
15229;BME280;7717;47.792;12.076;2023-02-04T12:52:49;97737.03;;;5.22;100.00
15229;BME280;7717;47.792;12.076;2023-02-04T12:55:15;97727.16;;;5.30;100.00
15229;BME280;7717;47.792;12.076;2023-02-04T12:57:40;97722.97;;;5.30;100.00
15229;BME280;7717;47.792;12.076;2023-02-04T13:00:06;97738.78;;;5.03;100.00
15229;BME280;7717;47.792;12.076;2023-02-04T13:02:32;97731.94;;;5.22;100.00
15229;BME280;7717;47.792;12.076;2023-02-04T13:04:58;97733.13;;;5.30;100.00
15229;BME280;7717;47.792;12.076;2023-02-04T13:07:23;97730.88;;;5.17;100.00
15229;BME280;7717;47.792;12.076;2023-02-04T13:09:48;97718.63;;;4.87;100.00
15229;BME280;7717;47.792;12.076;2023-02-04T13:12:14;97741.28;;;5.23;100.00
15229;BME280;7717;47.792;12.076;2023-02-04T13:14:43;97734.50;;;5.22;100.00